createdAt,value
2022-08-28T00:00:00.940Z,5.90
2022-08-28T00:02:28.520Z,9.83
2022-08-28T00:04:55.545Z,10.63
2022-08-28T00:07:22.529Z,7.90
2022-08-28T00:09:49.500Z,11.67
2022-08-28T00:12:16.456Z,7.80
2022-08-28T00:14:43.447Z,9.17
2022-08-28T00:17:10.377Z,12.87
2022-08-28T00:19:38.798Z,15.10
2022-08-28T00:22:07.549Z,26.20
2022-08-28T00:24:34.816Z,16.93
2022-08-28T00:27:20.370Z,13.20
2022-08-28T00:29:47.347Z,7.63
2022-08-28T00:32:14.337Z,16.03
2022-08-28T00:34:41.580Z,12.87
2022-08-28T00:37:08.510Z,11.80
2022-08-28T00:39:35.423Z,7.37
2022-08-28T00:42:02.381Z,14.57
2022-08-28T00:44:29.648Z,13.37
2022-08-28T00:46:59.030Z,11.17
2022-08-28T00:49:36.001Z,6.43
2022-08-28T00:52:08.599Z,10.83
2022-08-28T00:54:50.503Z,6.47
2022-08-28T00:57:35.675Z,11.70
2022-08-28T01:00:06.500Z,12.50
2022-08-28T01:02:33.548Z,8.60
2022-08-28T01:05:00.531Z,12.00
2022-08-28T01:07:27.555Z,14.93
2022-08-28T01:09:55.818Z,17.00
2022-08-28T01:12:28.590Z,7.67
2022-08-28T01:15:00.145Z,8.47
2022-08-28T01:17:31.425Z,8.93
2022-08-28T01:20:04.179Z,8.30
2022-08-28T01:22:38.678Z,9.83
2022-08-28T01:25:15.263Z,12.67
2022-08-28T01:27:43.327Z,9.53
2022-08-28T01:30:16.637Z,6.67
2022-08-28T01:32:47.541Z,11.80
2022-08-28T01:35:19.199Z,10.20
2022-08-28T01:37:47.581Z,6.60
2022-08-28T01:40:20.466Z,12.50
2022-08-28T01:42:48.153Z,10.50
2022-08-28T01:45:17.931Z,13.80
2022-08-28T01:47:45.893Z,18.53
2022-08-28T01:50:16.923Z,7.50
2022-08-28T01:52:44.293Z,6.23
2022-08-28T01:55:11.864Z,19.00
2022-08-28T01:57:51.668Z,7.10
2022-08-28T02:00:20.163Z,11.97
2022-08-28T02:02:50.249Z,16.23
2022-08-28T02:05:22.796Z,12.20
2022-08-28T02:07:50.455Z,15.33
2022-08-28T02:10:17.571Z,8.80
2022-08-28T02:12:44.514Z,7.23
2022-08-28T02:15:13.169Z,8.53
2022-08-28T02:17:40.174Z,11.70
2022-08-28T02:20:07.955Z,17.27
2022-08-28T02:22:36.523Z,19.43
2022-08-28T02:25:05.675Z,13.13
2022-08-28T02:27:32.680Z,10.13
2022-08-28T02:29:59.734Z,10.53
2022-08-28T02:32:27.660Z,20.90
2022-08-28T02:34:55.677Z,12.00
2022-08-28T02:37:24.442Z,10.20
2022-08-28T02:39:55.440Z,13.63
2022-08-28T02:42:22.871Z,9.93
2022-08-28T02:44:49.801Z,9.10
2022-08-28T02:47:17.044Z,10.17
2022-08-28T02:49:44.432Z,18.70
2022-08-28T02:52:12.060Z,13.63
2022-08-28T02:54:40.436Z,23.73
2022-08-28T02:57:08.768Z,10.70
2022-08-28T02:59:36.468Z,18.87
2022-08-28T03:02:04.788Z,20.83
2022-08-28T03:04:31.685Z,17.33
2022-08-28T03:06:59.350Z,15.73
2022-08-28T03:09:26.648Z,8.73
2022-08-28T03:11:55.073Z,13.10
2022-08-28T03:14:22.518Z,10.73
2022-08-28T03:16:49.512Z,12.47
2022-08-28T03:19:16.666Z,18.73
2022-08-28T03:21:43.644Z,14.57
2022-08-28T03:24:10.528Z,10.10
2022-08-28T03:26:41.998Z,12.83
2022-08-28T03:29:08.891Z,8.67
2022-08-28T03:31:36.293Z,9.90
2022-08-28T03:34:03.312Z,11.80
2022-08-28T03:36:30.336Z,15.47
2022-08-28T03:39:01.765Z,9.30
2022-08-28T03:41:30.997Z,11.73
2022-08-28T03:43:59.949Z,10.83
2022-08-28T03:46:28.434Z,21.67
2022-08-28T03:48:55.983Z,18.60
2022-08-28T03:51:29.242Z,11.60
2022-08-28T03:53:59.585Z,19.43
2022-08-28T03:56:28.826Z,17.30
2022-08-28T03:58:58.410Z,13.47
2022-08-28T04:01:25.966Z,12.50
2022-08-28T04:03:52.982Z,12.13
2022-08-28T04:06:20.079Z,11.97
2022-08-28T04:08:47.993Z,10.33
2022-08-28T04:11:14.921Z,9.03
2022-08-28T04:13:42.127Z,14.70
2022-08-28T04:16:12.160Z,14.00
2022-08-28T04:18:41.361Z,15.00
2022-08-28T04:21:11.306Z,13.73
2022-08-28T04:23:39.929Z,10.80
2022-08-28T04:26:08.334Z,17.10
2022-08-28T04:28:36.641Z,12.40
2022-08-28T04:31:03.583Z,14.23
2022-08-28T04:33:30.861Z,8.33
2022-08-28T04:36:08.074Z,10.37
2022-08-28T04:38:34.995Z,12.90
2022-08-28T04:41:09.982Z,10.30
2022-08-28T04:43:37.432Z,13.80
2022-08-28T04:46:11.479Z,15.60
2022-08-28T04:48:39.616Z,10.10
2022-08-28T04:51:09.423Z,15.50
2022-08-28T04:53:38.085Z,10.30
2022-08-28T04:56:08.289Z,21.07
2022-08-28T04:58:35.534Z,14.00
2022-08-28T05:01:15.292Z,14.57
2022-08-28T05:03:42.463Z,4.77
2022-08-28T05:06:09.610Z,10.20
2022-08-28T05:08:36.652Z,26.63
2022-08-28T05:11:27.287Z,17.40
2022-08-28T05:14:06.398Z,22.20
2022-08-28T05:16:39.306Z,14.60
2022-08-28T05:19:06.396Z,16.23
2022-08-28T05:21:33.372Z,10.87
2022-08-28T05:24:00.658Z,13.80
2022-08-28T05:26:29.871Z,9.80
2022-08-28T05:28:57.988Z,24.37
2022-08-28T05:31:26.463Z,11.17
2022-08-28T05:33:53.996Z,9.13
2022-08-28T05:36:25.900Z,13.67
2022-08-28T05:39:00.446Z,10.30
2022-08-28T05:41:30.334Z,10.83
2022-08-28T05:44:03.097Z,10.40
2022-08-28T05:46:30.549Z,11.23
2022-08-28T05:48:57.792Z,8.13
2022-08-28T05:51:26.703Z,11.27
2022-08-28T05:53:55.185Z,15.27
2022-08-28T05:56:25.718Z,11.63
2022-08-28T05:58:52.628Z,6.83
2022-08-28T06:01:28.233Z,7.20
2022-08-28T06:04:08.600Z,17.20
2022-08-28T06:06:39.290Z,8.07
2022-08-28T06:09:15.565Z,9.00
2022-08-28T06:11:44.746Z,14.03
2022-08-28T06:14:16.234Z,8.33
2022-08-28T06:16:47.077Z,11.67
2022-08-28T06:19:14.638Z,6.40
2022-08-28T06:21:43.429Z,17.00
2022-08-28T06:24:12.212Z,15.37
2022-08-28T06:26:39.545Z,14.97
2022-08-28T06:29:09.133Z,10.20
2022-08-28T06:31:36.680Z,7.73
2022-08-28T06:34:03.927Z,9.13
2022-08-28T06:36:34.435Z,7.50
2022-08-28T06:39:03.330Z,8.63
2022-08-28T06:41:32.179Z,8.73
2022-08-28T06:43:59.367Z,9.50
2022-08-28T06:46:29.145Z,6.83
2022-08-28T06:48:56.038Z,6.30
2022-08-28T06:51:24.895Z,12.83
2022-08-28T06:53:52.228Z,8.87
2022-08-28T06:56:26.805Z,11.27
2022-08-28T06:58:55.951Z,9.50
2022-08-28T07:01:27.053Z,7.30
2022-08-28T07:03:56.370Z,4.80
2022-08-28T07:06:24.130Z,4.90
2022-08-28T07:08:51.643Z,4.03
2022-08-28T07:11:28.781Z,3.60
2022-08-28T07:13:57.078Z,6.53
2022-08-28T07:16:30.326Z,6.20
2022-08-28T07:18:57.780Z,4.37
2022-08-28T07:21:24.692Z,5.83
2022-08-28T07:23:51.975Z,8.80
2022-08-28T07:26:23.482Z,10.60
2022-08-28T07:28:51.961Z,9.67
2022-08-28T07:31:22.563Z,8.27
2022-08-28T07:33:53.947Z,6.97
2022-08-28T07:36:29.332Z,7.53
2022-08-28T07:38:59.112Z,4.70
2022-08-28T07:41:31.954Z,10.37
2022-08-28T07:44:34.633Z,4.47
2022-08-28T07:47:05.736Z,15.10
2022-08-28T07:49:34.544Z,3.10
2022-08-28T07:52:02.316Z,8.33
2022-08-28T07:54:29.336Z,9.90
2022-08-28T07:56:56.272Z,6.97
2022-08-28T07:59:23.467Z,9.00
2022-08-28T08:01:52.243Z,8.57
2022-08-28T08:04:21.923Z,7.97
2022-08-28T08:06:51.437Z,8.90
2022-08-28T08:09:22.250Z,7.10
2022-08-28T08:11:49.542Z,7.03
2022-08-28T08:14:17.342Z,3.73
2022-08-28T08:16:45.880Z,9.80
2022-08-28T08:19:14.317Z,11.40
2022-08-28T08:21:46.492Z,7.37
2022-08-28T08:24:21.036Z,5.83
2022-08-28T08:26:56.527Z,8.47
2022-08-28T08:29:32.959Z,7.80
2022-08-28T08:32:06.063Z,7.47
2022-08-28T08:34:40.369Z,11.87
2022-08-28T08:37:07.894Z,8.23
2022-08-28T08:39:36.165Z,6.93
2022-08-28T08:42:05.138Z,4.57
2022-08-28T08:44:52.277Z,3.00
2022-08-28T08:47:52.506Z,5.70
2022-08-28T08:50:32.271Z,4.40
2022-08-28T08:53:33.093Z,6.53
2022-08-28T08:56:00.201Z,3.63
2022-08-28T08:58:49.011Z,6.73
2022-08-28T09:01:39.214Z,8.07
2022-08-28T09:04:40.366Z,6.53
2022-08-28T09:07:24.816Z,6.13
2022-08-28T09:09:55.504Z,3.10
2022-08-28T09:12:30.416Z,4.10
2022-08-28T09:15:30.136Z,3.83
2022-08-28T09:18:14.131Z,4.23
2022-08-28T09:20:42.270Z,8.93
2022-08-28T09:23:13.133Z,7.33
2022-08-28T09:26:21.208Z,2.70
2022-08-28T09:29:01.106Z,2.17
2022-08-28T09:31:37.590Z,2.53
2022-08-28T09:34:38.757Z,14.00
2022-08-28T09:37:08.511Z,8.60
2022-08-28T09:39:36.190Z,2.33
2022-08-28T09:42:41.669Z,4.60
2022-08-28T09:45:21.168Z,4.87
2022-08-28T09:47:52.743Z,10.00
2022-08-28T09:50:32.880Z,6.93
2022-08-28T09:53:16.815Z,4.70
2022-08-28T09:56:29.900Z,3.83
2022-08-28T09:59:05.838Z,3.83
2022-08-28T10:02:15.595Z,3.30
2022-08-28T10:05:09.625Z,15.10
2022-08-28T10:07:51.580Z,4.03
2022-08-28T10:10:45.495Z,6.33
2022-08-28T10:13:30.373Z,4.20
2022-08-28T10:16:37.985Z,3.87
2022-08-28T10:19:23.258Z,6.00
2022-08-28T10:22:14.976Z,3.93
2022-08-28T10:25:16.138Z,5.30
2022-08-28T10:28:29.215Z,3.83
2022-08-28T10:31:40.295Z,2.80
2022-08-28T10:34:51.732Z,4.17
2022-08-28T10:37:41.716Z,3.73
2022-08-28T10:40:30.940Z,5.70
2022-08-28T10:43:33.847Z,3.93
2022-08-28T10:46:32.172Z,2.43
2022-08-28T10:49:44.952Z,2.83
2022-08-28T10:52:33.612Z,3.00
2022-08-28T10:55:14.322Z,3.63
2022-08-28T10:57:57.583Z,3.77
2022-08-28T11:00:27.676Z,3.40
2022-08-28T11:03:34.802Z,4.00
2022-08-28T11:06:30.142Z,2.60
2022-08-28T11:09:00.264Z,4.33
2022-08-28T11:11:44.013Z,6.37
2022-08-28T11:14:44.584Z,2.00
2022-08-28T11:17:44.460Z,2.17
2022-08-28T11:20:25.626Z,2.40
2022-08-28T11:23:17.203Z,1.80
2022-08-28T11:25:58.991Z,1.63
2022-08-28T11:28:47.425Z,2.60
2022-08-28T11:31:36.315Z,3.90
2022-08-28T11:34:05.665Z,2.07
2022-08-28T11:36:32.632Z,2.07
2022-08-28T11:39:34.208Z,3.07
2022-08-28T11:42:28.700Z,2.90
2022-08-28T11:44:55.808Z,5.27
2022-08-28T11:47:43.502Z,1.90
2022-08-28T11:50:28.248Z,2.30
2022-08-28T11:53:33.318Z,1.70
2022-08-28T11:56:46.544Z,3.20
2022-08-28T11:59:38.898Z,5.20
2022-08-28T12:02:59.993Z,2.10
2022-08-28T12:05:41.216Z,5.50
2022-08-28T12:08:12.502Z,2.30
2022-08-28T12:10:59.743Z,2.05
2022-08-28T12:13:47.403Z,1.57
2022-08-28T12:16:15.920Z,2.03
2022-08-28T12:19:04.902Z,2.60
2022-08-28T12:21:38.739Z,2.03
2022-08-28T12:24:18.629Z,3.80
2022-08-28T12:26:51.512Z,3.20
2022-08-28T12:29:34.707Z,2.33
2022-08-28T12:32:56.114Z,2.70
2022-08-28T12:35:29.879Z,4.70
2022-08-28T12:38:03.628Z,1.10
2022-08-28T12:40:53.483Z,2.25
2022-08-28T12:43:46.255Z,3.25
2022-08-28T12:46:19.388Z,3.25
2022-08-28T12:48:59.665Z,2.90
2022-08-28T12:51:29.842Z,3.47
2022-08-28T12:54:02.777Z,5.47
2022-08-28T12:56:35.108Z,12.93
2022-08-28T12:59:27.436Z,4.87
2022-08-28T13:01:54.870Z,6.05
2022-08-28T13:04:57.624Z,2.80
2022-08-28T13:07:40.870Z,1.60
2022-08-28T13:10:39.143Z,3.05
2022-08-28T13:13:19.158Z,5.45
2022-08-28T13:16:01.628Z,1.60
2022-08-28T13:19:04.066Z,2.60
2022-08-28T13:21:35.185Z,7.67
2022-08-28T13:24:22.293Z,1.57
2022-08-28T13:27:22.263Z,5.50
2022-08-28T13:30:06.209Z,4.13
2022-08-28T13:32:37.251Z,1.92
2022-08-28T13:35:13.727Z,1.93
2022-08-28T13:37:47.951Z,2.30
2022-08-28T13:40:53.383Z,2.70
2022-08-28T13:43:11.451Z,5.20
2022-08-28T13:45:43.225Z,3.70
2022-08-28T13:48:29.526Z,3.57
2022-08-28T13:51:10.467Z,3.40
2022-08-28T13:53:38.652Z,2.80
2022-08-28T13:56:06.016Z,3.00
2022-08-28T13:58:33.016Z,2.07
2022-08-28T14:01:00.604Z,2.63
2022-08-28T14:03:38.328Z,3.97
2022-08-28T14:06:16.416Z,4.30
2022-08-28T14:08:45.329Z,1.30
2022-08-28T14:11:15.168Z,1.20
2022-08-28T14:13:47.305Z,2.10
2022-08-28T14:16:23.612Z,5.03
2022-08-28T14:18:52.696Z,3.23
2022-08-28T14:21:19.827Z,1.50
2022-08-28T14:23:47.319Z,1.43
2022-08-28T14:26:14.385Z,3.73
2022-08-28T14:28:42.486Z,7.40
2022-08-28T14:31:14.210Z,2.47
2022-08-28T14:33:42.489Z,5.70
2022-08-28T14:36:17.667Z,2.23
2022-08-28T14:38:44.970Z,1.50
2022-08-28T14:41:12.377Z,5.63
2022-08-28T14:43:39.399Z,2.60
2022-08-28T14:46:11.424Z,3.10
2022-08-28T14:48:38.782Z,3.40
2022-08-28T14:51:06.154Z,9.13
2022-08-28T14:53:35.269Z,2.80
2022-08-28T14:56:02.962Z,4.43
2022-08-28T14:58:29.962Z,1.87
2022-08-28T15:00:59.342Z,2.73
2022-08-28T15:03:27.142Z,2.03
2022-08-28T15:06:07.237Z,4.17
2022-08-28T15:08:35.267Z,2.90
2022-08-28T15:11:18.470Z,7.83
2022-08-28T15:13:47.769Z,2.90
2022-08-28T15:16:24.665Z,2.50
2022-08-28T15:18:55.504Z,1.57
2022-08-28T15:21:36.872Z,3.90
2022-08-28T15:24:05.382Z,3.53
2022-08-28T15:26:33.009Z,3.93
2022-08-28T15:29:03.645Z,4.23
2022-08-28T15:31:33.569Z,4.00
2022-08-28T15:34:13.831Z,3.23
2022-08-28T15:36:42.275Z,2.47
2022-08-28T15:39:29.213Z,2.13
2022-08-28T15:41:57.591Z,4.40
2022-08-28T15:44:24.640Z,2.43
2022-08-28T15:46:54.309Z,3.50
2022-08-28T15:49:23.722Z,2.83
2022-08-28T15:51:52.377Z,3.60
2022-08-28T15:54:20.660Z,1.60
2022-08-28T15:56:50.739Z,3.57
2022-08-28T15:59:21.294Z,1.67
2022-08-28T16:01:52.007Z,2.17
2022-08-28T16:04:19.210Z,3.43
2022-08-28T16:06:46.921Z,4.33
2022-08-28T16:09:14.186Z,2.73
2022-08-28T16:11:43.942Z,4.50
2022-08-28T16:14:12.121Z,5.90
2022-08-28T16:16:40.120Z,2.80
2022-08-28T16:19:14.175Z,2.17
2022-08-28T16:21:42.666Z,2.80
2022-08-28T16:24:10.951Z,2.67
2022-08-28T16:26:37.910Z,2.83
2022-08-28T16:29:04.887Z,4.63
2022-08-28T16:31:34.251Z,2.50
2022-08-28T16:34:03.255Z,3.40
2022-08-28T16:36:31.739Z,2.40
2022-08-28T16:39:03.700Z,3.20
2022-08-28T16:41:32.107Z,6.17
2022-08-28T16:44:00.333Z,2.90
2022-08-28T16:46:27.904Z,3.30
2022-08-28T16:48:55.012Z,3.10
2022-08-28T16:51:22.863Z,1.90
2022-08-28T16:53:49.778Z,3.70
2022-08-28T16:56:18.190Z,4.40
2022-08-28T16:58:45.949Z,4.33
2022-08-28T17:01:14.037Z,3.20
2022-08-28T17:03:42.220Z,5.57
2022-08-28T17:06:14.000Z,3.40
2022-08-28T17:08:41.859Z,3.10
2022-08-28T17:11:09.155Z,7.50
2022-08-28T17:13:37.308Z,2.03
2022-08-28T17:16:05.448Z,9.60
2022-08-28T17:18:33.332Z,4.77
2022-08-28T17:21:19.162Z,3.47
2022-08-28T17:23:47.055Z,2.57
2022-08-28T17:26:15.885Z,4.53
2022-08-28T17:28:44.130Z,3.10
2022-08-28T17:31:12.367Z,2.77
2022-08-28T17:33:41.918Z,3.30
2022-08-28T17:36:21.239Z,2.87
2022-08-28T17:38:59.011Z,1.30
2022-08-28T17:41:27.070Z,4.27
2022-08-28T17:43:53.977Z,4.83
2022-08-28T17:46:20.942Z,5.83
2022-08-28T17:48:55.628Z,2.70
2022-08-28T17:51:42.498Z,2.80
2022-08-28T17:54:18.712Z,2.47
2022-08-28T17:56:46.614Z,2.67
2022-08-28T17:59:14.357Z,3.50
2022-08-28T18:01:42.790Z,1.70
2022-08-28T18:04:10.525Z,1.90
2022-08-28T18:06:37.963Z,7.73
2022-08-28T18:09:06.966Z,3.60
2022-08-28T18:11:34.258Z,1.80
2022-08-28T18:14:01.930Z,4.10
2022-08-28T18:16:32.937Z,1.80
2022-08-28T18:19:01.005Z,6.80
2022-08-28T18:21:29.953Z,4.00
2022-08-28T18:23:57.706Z,7.07
2022-08-28T18:26:24.829Z,2.47
2022-08-28T18:28:52.706Z,1.73
2022-08-28T18:31:20.097Z,2.13
2022-08-28T18:33:47.831Z,3.10
2022-08-28T18:36:15.272Z,4.27
2022-08-28T18:38:43.786Z,7.40
2022-08-28T18:41:12.185Z,9.73
2022-08-28T18:43:39.634Z,2.53
2022-08-28T18:46:14.184Z,5.87
2022-08-28T18:48:42.964Z,4.77
2022-08-28T18:51:12.818Z,5.63
2022-08-28T18:53:43.193Z,7.03
2022-08-28T18:56:12.295Z,4.37
2022-08-28T18:58:40.054Z,4.03
2022-08-28T19:01:08.319Z,6.70
2022-08-28T19:03:35.528Z,6.80
2022-08-28T19:06:03.038Z,3.03
2022-08-28T19:08:30.714Z,6.40
2022-08-28T19:10:57.845Z,3.30
2022-08-28T19:13:24.925Z,2.90
2022-08-28T19:15:54.254Z,4.40
2022-08-28T19:18:22.145Z,2.43
2022-08-28T19:20:49.059Z,6.33
2022-08-28T19:23:17.897Z,4.43
2022-08-28T19:25:45.167Z,4.10
2022-08-28T19:28:12.956Z,9.37
2022-08-28T19:30:40.087Z,5.10
2022-08-28T19:33:07.185Z,6.17
2022-08-28T19:35:34.240Z,2.70
2022-08-28T19:38:02.192Z,6.10
2022-08-28T19:40:29.375Z,6.27
2022-08-28T19:42:57.153Z,3.73
2022-08-28T19:45:25.044Z,5.47
2022-08-28T19:47:52.855Z,7.73
2022-08-28T19:50:20.363Z,3.87
2022-08-28T19:52:47.843Z,7.70
2022-08-28T19:55:21.965Z,4.43
2022-08-28T19:57:49.616Z,3.40
2022-08-28T20:00:20.986Z,2.93
2022-08-28T20:02:49.405Z,2.10
2022-08-28T20:05:16.634Z,2.60
2022-08-28T20:07:43.953Z,1.97
2022-08-28T20:10:14.158Z,3.50
2022-08-28T20:12:48.352Z,2.27
2022-08-28T20:15:17.892Z,4.03
2022-08-28T20:17:49.958Z,4.80
2022-08-28T20:20:24.557Z,5.43
2022-08-28T20:22:54.236Z,5.13
2022-08-28T20:25:21.887Z,2.33
2022-08-28T20:27:48.859Z,4.03
2022-08-28T20:30:16.582Z,5.37
2022-08-28T20:32:43.624Z,7.03
2022-08-28T20:35:12.863Z,3.33
2022-08-28T20:37:45.182Z,2.90
2022-08-28T20:40:14.645Z,2.57
2022-08-28T20:42:41.843Z,4.50
2022-08-28T20:45:09.642Z,6.17
2022-08-28T20:47:36.760Z,2.93
2022-08-28T20:50:04.770Z,4.70
2022-08-28T20:52:34.031Z,2.87
2022-08-28T20:55:01.097Z,8.83
2022-08-28T20:57:29.093Z,4.07
2022-08-28T20:59:56.053Z,4.60
2022-08-28T21:02:27.861Z,6.57
2022-08-28T21:04:55.740Z,4.93
2022-08-28T21:07:24.446Z,1.60
2022-08-28T21:10:04.849Z,6.43
2022-08-28T21:12:35.847Z,1.97
2022-08-28T21:15:03.680Z,1.97
2022-08-28T21:17:31.045Z,5.53
2022-08-28T21:20:00.497Z,7.87
2022-08-28T21:22:29.143Z,5.40
2022-08-28T21:24:56.159Z,2.40
2022-08-28T21:27:23.184Z,5.87
2022-08-28T21:29:50.424Z,7.07
2022-08-28T21:32:17.535Z,7.50
2022-08-28T21:34:44.824Z,5.83
2022-08-28T21:37:11.862Z,4.83
2022-08-28T21:39:38.780Z,5.43
2022-08-28T21:42:06.738Z,3.57
2022-08-28T21:44:33.769Z,2.67
2022-08-28T21:47:00.719Z,3.57
2022-08-28T21:49:27.879Z,3.20
2022-08-28T21:51:54.867Z,2.00
2022-08-28T21:54:23.142Z,4.80
2022-08-28T21:56:50.620Z,4.93
2022-08-28T21:59:25.858Z,6.43
2022-08-28T22:01:58.416Z,5.33
2022-08-28T22:04:25.398Z,6.60
2022-08-28T22:06:52.676Z,6.77
2022-08-28T22:09:20.245Z,10.07
2022-08-28T22:11:47.437Z,5.70
2022-08-28T22:14:14.638Z,7.33
2022-08-28T22:16:42.929Z,3.20
2022-08-28T22:19:09.903Z,5.13
2022-08-28T22:21:55.212Z,4.33
2022-08-28T22:24:22.189Z,3.53
2022-08-28T22:26:49.223Z,6.30
2022-08-28T22:29:21.620Z,2.70
2022-08-28T22:31:48.558Z,4.87
2022-08-28T22:34:15.467Z,7.60
2022-08-28T22:36:42.645Z,4.23
2022-08-28T22:39:09.527Z,2.63
2022-08-28T22:41:37.766Z,5.00
2022-08-28T22:44:04.890Z,3.83
2022-08-28T22:46:31.798Z,7.80
2022-08-28T22:48:59.058Z,12.13
2022-08-28T22:51:26.062Z,3.47
2022-08-28T22:53:53.450Z,3.53
2022-08-28T22:56:20.755Z,3.10
2022-08-28T22:58:47.688Z,2.73
2022-08-28T23:01:18.093Z,4.63
2022-08-28T23:03:46.722Z,6.50
2022-08-28T23:06:14.172Z,3.07
2022-08-28T23:08:41.648Z,5.57
2022-08-28T23:11:10.046Z,3.80
2022-08-28T23:13:37.736Z,6.60
2022-08-28T23:16:05.304Z,4.83
2022-08-28T23:18:46.245Z,3.53
2022-08-28T23:21:20.706Z,6.20
2022-08-28T23:23:47.651Z,19.33
2022-08-28T23:26:15.971Z,3.20
2022-08-28T23:28:43.194Z,7.43
2022-08-28T23:31:10.663Z,4.40
2022-08-28T23:33:37.742Z,3.60
2022-08-28T23:36:05.568Z,4.40
2022-08-28T23:38:35.212Z,4.90
2022-08-28T23:41:02.641Z,3.80
2022-08-28T23:43:30.091Z,4.23
2022-08-28T23:45:57.090Z,10.53
2022-08-28T23:48:24.986Z,8.03
2022-08-28T23:50:52.847Z,7.90
2022-08-28T23:53:20.336Z,6.50
2022-08-28T23:55:48.566Z,5.40
2022-08-28T23:58:16.799Z,5.03
